Time;durP1;ratioP1;P1;durP2;ratioP2;P2;SDS_P1;SDS_P2;PMS_P1;PMS_P2;Temp;Humidity;BMP_temperature;BMP_pressure;BME280_temperature;BME280_humidity;BME280_pressure;Samples;Min_cycle;Max_cycle;Signal;HPM_P1;HPM_P2
2023/07/26 00:00:42;;;;;;;2.90;2.00;;;;;;;13.83;100.00;100999.22;5005099;28;20029;-61
2023/07/26 00:03:08;;;;;;;2.17;1.80;;;;;;;13.79;100.00;101000.00;4988357;28;20038;-62
2023/07/26 00:05:33;;;;;;;2.88;1.70;;;;;;;13.81;100.00;101000.94;4990898;28;20441;-62
2023/07/26 00:07:58;;;;;;;3.08;1.63;;;;;;;13.81;100.00;101004.38;4999068;28;20053;-62
2023/07/26 00:10:24;;;;;;;3.90;2.00;;;;;;;13.81;100.00;101000.94;4988222;28;20089;-61
2023/07/26 00:12:49;;;;;;;2.47;2.10;;;;;;;13.85;100.00;101000.13;4997867;28;20033;-62
2023/07/26 00:15:15;;;;;;;2.92;1.77;;;;;;;13.86;100.00;101001.00;5007779;28;20782;-62
2023/07/26 00:17:40;;;;;;;2.33;2.13;;;;;;;13.82;100.00;100997.47;5007388;28;20018;-62
2023/07/26 00:20:06;;;;;;;4.57;2.28;;;;;;;13.85;100.00;100997.50;4992087;28;20107;-62
2023/07/26 00:22:31;;;;;;;3.30;1.88;;;;;;;13.88;100.00;101002.81;4988487;28;20023;-62
2023/07/26 00:24:59;;;;;;;3.42;2.17;;;;;;;13.91;100.00;101002.88;4988809;28;20061;-62
2023/07/26 00:27:25;;;;;;;2.65;2.45;;;;;;;13.89;100.00;100998.47;4987855;28;20033;-62
2023/07/26 00:29:50;;;;;;;2.28;2.08;;;;;;;13.89;100.00;101001.94;4987604;28;20430;-62
2023/07/26 00:32:15;;;;;;;3.05;1.88;;;;;;;13.87;100.00;100993.22;4995252;28;20588;-62
2023/07/26 00:34:41;;;;;;;4.80;2.50;;;;;;;13.88;100.00;101001.94;4994210;28;20364;-61
2023/07/26 00:37:06;;;;;;;3.33;2.58;;;;;;;13.86;100.00;100994.09;5000556;28;20128;-62
2023/07/26 00:39:31;;;;;;;3.15;2.05;;;;;;;13.86;100.00;100999.28;4988618;28;20026;-63
2023/07/26 00:41:57;;;;;;;4.60;2.70;;;;;;;13.83;100.00;100994.03;5005316;28;20556;-62
2023/07/26 00:44:22;;;;;;;3.75;2.20;;;;;;;13.85;100.00;100992.31;5007240;28;20419;-61
2023/07/26 00:46:48;;;;;;;2.70;2.50;;;;;;;13.84;100.00;100992.28;5007465;28;20456;-62
2023/07/26 00:49:14;;;;;;;4.38;2.53;;;;;;;13.83;100.00;100993.13;5007502;28;20071;-62
2023/07/26 00:51:40;;;;;;;3.58;2.47;;;;;;;13.80;100.00;100991.34;5000338;28;20153;-62
2023/07/26 00:54:07;;;;;;;3.67;2.40;;;;;;;13.79;100.00;100989.59;4988141;28;20028;-62
2023/07/26 00:56:33;;;;;;;5.40;2.83;;;;;;;13.78;100.00;100986.09;5007116;28;20029;-61
2023/07/26 00:58:59;;;;;;;4.75;3.08;;;;;;;13.77;100.00;100992.16;5007354;28;20022;-62
2023/07/26 01:01:24;;;;;;;3.30;2.50;;;;;;;13.76;100.00;100993.00;4998893;28;20478;-61
2023/07/26 01:03:49;;;;;;;3.78;2.60;;;;;;;13.76;100.00;100986.94;5002273;28;20109;-61
2023/07/26 01:06:18;;;;;;;4.82;2.83;;;;;;;13.76;100.00;100982.56;5007298;28;20021;-62
2023/07/26 01:09:02;;;;;;;5.10;2.58;;;;;;;13.76;100.00;100977.38;5006842;28;20128;-62
2023/07/26 01:11:40;;;;;;;4.53;3.30;;;;;;;13.74;100.00;100991.22;5007337;28;20109;-62
2023/07/26 01:14:12;;;;;;;3.33;2.97;;;;;;;13.74;100.00;100986.00;4988042;28;20072;-62
2023/07/26 01:16:38;;;;;;;4.20;3.05;;;;;;;13.72;100.00;100985.09;5002184;28;20030;-62
2023/07/26 01:19:03;;;;;;;4.82;3.13;;;;;;;13.68;100.00;100998.06;5007208;28;20379;-61
2023/07/26 01:21:33;;;;;;;3.97;3.20;;;;;;;13.65;100.00;100991.91;4992364;28;20037;-62
2023/07/26 01:23:58;;;;;;;4.57;2.97;;;;;;;13.62;100.00;100987.50;4988146;28;20022;-62
2023/07/26 01:26:24;;;;;;;4.53;3.20;;;;;;;13.62;100.00;100990.09;5001110;28;20380;-61
2023/07/26 01:28:49;;;;;;;3.65;3.08;;;;;;;13.63;100.00;100986.66;4998356;28;20073;-61
2023/07/26 01:31:16;;;;;;;4.15;3.28;;;;;;;13.62;100.00;100989.22;5001621;28;20029;-61
2023/07/26 01:33:44;;;;;;;2.97;2.75;;;;;;;13.62;100.00;100995.31;4988800;28;20050;-61
2023/07/26 01:36:10;;;;;;;4.28;2.83;;;;;;;13.61;100.00;100990.97;4991245;28;20108;-61
2023/07/26 01:38:37;;;;;;;4.47;2.67;;;;;;;13.61;100.00;100997.88;5007760;28;20109;-61
2023/07/26 01:41:03;;;;;;;5.07;3.00;;;;;;;13.57;100.00;100996.94;5007896;28;20025;-61
2023/07/26 01:43:28;;;;;;;3.47;3.00;;;;;;;13.54;100.00;100986.47;4992298;28;20022;-61
2023/07/26 01:45:54;;;;;;;3.67;3.00;;;;;;;13.55;100.00;100988.22;4992661;28;20021;-62
2023/07/26 01:48:19;;;;;;;3.45;2.72;;;;;;;13.53;100.00;100989.88;4991964;28;20094;-61
2023/07/26 01:50:44;;;;;;;3.80;2.65;;;;;;;13.52;100.00;100993.31;5004350;28;20049;-61
2023/07/26 01:53:10;;;;;;;4.47;3.50;;;;;;;13.54;100.00;100987.34;4999246;28;20176;-61
2023/07/26 01:55:35;;;;;;;3.85;3.08;;;;;;;13.53;100.00;100980.38;4996132;28;20081;-62
2023/07/26 01:58:00;;;;;;;4.68;2.97;;;;;;;13.52;100.00;100988.13;4991358;28;20497;-62
2023/07/26 02:00:26;;;;;;;3.53;3.22;;;;;;;13.50;100.00;100993.28;4991358;28;20030;-62
2023/07/26 02:02:51;;;;;;;4.03;2.92;;;;;;;13.47;100.00;100985.41;5003271;28;20018;-62
2023/07/26 02:05:16;;;;;;;3.65;3.35;;;;;;;13.36;100.00;100992.09;5003414;28;20049;-62
2023/07/26 02:07:42;;;;;;;4.47;3.80;;;;;;;13.37;100.00;100992.13;4990887;28;20030;-61
2023/07/26 02:10:08;;;;;;;5.05;3.40;;;;;;;13.36;100.00;100986.88;4990392;28;20081;-62
2023/07/26 02:12:33;;;;;;;3.83;3.53;;;;;;;13.36;100.00;100994.69;4991079;28;20105;-61
2023/07/26 02:14:59;;;;;;;3.55;3.25;;;;;;;13.35;100.00;100991.22;4991251;28;20030;-61
2023/07/26 02:17:24;;;;;;;4.25;3.30;;;;;;;13.36;100.00;100992.97;4991190;28;20018;-62
2023/07/26 02:19:50;;;;;;;3.60;3.22;;;;;;;13.38;100.00;100996.50;4991025;28;20026;-61
2023/07/26 02:22:15;;;;;;;3.33;3.03;;;;;;;13.37;100.00;100988.63;4990021;28;20022;-61
2023/07/26 02:24:41;;;;;;;3.47;3.13;;;;;;;13.37;100.00;100984.31;4990839;28;20061;-62
2023/07/26 02:27:06;;;;;;;4.50;3.28;;;;;;;13.39;100.00;100987.84;4990779;28;20026;-61
2023/07/26 02:29:34;;;;;;;5.68;3.20;;;;;;;13.37;100.00;100979.09;5003226;28;20022;-61
2023/07/26 02:31:59;;;;;;;6.10;3.60;;;;;;;13.37;100.00;100988.63;5009451;28;20033;-61
2023/07/26 02:34:25;;;;;;;3.35;3.05;;;;;;;13.39;100.00;100985.22;5008815;28;20470;-62
2023/07/26 02:36:50;;;;;;;2.85;2.65;;;;;;;13.38;100.00;100986.09;5008859;28;20121;-62
2023/07/26 02:39:15;;;;;;;3.88;3.30;;;;;;;13.34;100.00;100986.84;5008586;28;20041;-61
2023/07/26 02:41:41;;;;;;;3.55;3.20;;;;;;;13.29;100.00;100980.66;5008970;28;20026;-61
2023/07/26 02:44:07;;;;;;;4.97;3.55;;;;;;;13.23;100.00;100981.41;5008215;28;20076;-61
2023/07/26 02:46:32;;;;;;;3.63;3.33;;;;;;;13.18;100.00;100977.81;5008483;28;20029;-62
2023/07/26 02:48:58;;;;;;;3.42;3.13;;;;;;;13.14;100.00;100982.06;5008619;28;20079;-62
2023/07/26 02:51:23;;;;;;;3.75;3.42;;;;;;;13.07;100.00;100974.97;5001718;28;20038;-62
2023/07/26 02:53:49;;;;;;;3.75;3.42;;;;;;;13.06;100.00;100983.63;4989863;28;20239;-62
2023/07/26 02:56:15;;;;;;;4.35;3.42;;;;;;;13.03;100.00;100978.31;4989371;28;20027;-61
2023/07/26 02:58:40;;;;;;;4.30;3.10;;;;;;;13.02;100.00;100976.56;4989830;28;20026;-61
2023/07/26 03:01:05;;;;;;;4.03;3.28;;;;;;;13.00;100.00;100986.06;4995516;28;20017;-61
2023/07/26 03:03:31;;;;;;;3.92;3.63;;;;;;;12.97;100.00;100997.25;5008901;28;20036;-61
2023/07/26 03:05:57;;;;;;;4.07;3.25;;;;;;;12.96;100.00;100999.00;5008423;28;20021;-61
2023/07/26 03:08:22;;;;;;;3.58;3.28;;;;;;;12.91;100.00;100999.72;5008491;28;20026;-61
2023/07/26 03:10:51;;;;;;;3.28;2.97;;;;;;;12.90;100.00;101004.03;5008089;28;20100;-61
2023/07/26 03:13:16;;;;;;;3.13;2.80;;;;;;;12.91;100.00;101003.22;5008565;28;20541;-61
2023/07/26 03:15:41;;;;;;;3.97;3.40;;;;;;;12.90;100.00;101004.03;5007818;28;20022;-61
2023/07/26 03:18:07;;;;;;;4.50;3.45;;;;;;;12.93;100.00;101014.50;5008697;28;20072;-62
2023/07/26 03:20:32;;;;;;;3.63;2.85;;;;;;;12.94;100.00;101016.28;5007879;28;20022;-61
2023/07/26 03:22:57;;;;;;;4.93;3.30;;;;;;;12.96;100.00;101014.59;5008474;28;20057;-62
2023/07/26 03:25:23;;;;;;;5.25;3.88;;;;;;;12.99;100.00;101010.31;5007540;28;20025;-61
2023/07/26 03:27:48;;;;;;;5.28;3.78;;;;;;;13.00;100.00;101004.25;5008039;28;20033;-62
2023/07/26 03:30:13;;;;;;;4.13;3.60;;;;;;;12.92;100.00;101007.56;5007662;28;20445;-62
2023/07/26 03:32:39;;;;;;;4.38;3.78;;;;;;;12.89;100.00;101002.28;5007908;28;20025;-61
2023/07/26 03:35:05;;;;;;;5.57;4.07;;;;;;;12.88;100.00;101002.25;5007725;28;20026;-61
2023/07/26 03:37:30;;;;;;;3.88;3.47;;;;;;;12.89;100.00;101004.00;5007557;28;20036;-62
2023/07/26 03:39:55;;;;;;;6.20;3.80;;;;;;;12.86;100.00;100997.00;5004831;28;20049;-61
2023/07/26 03:42:21;;;;;;;4.47;4.07;;;;;;;12.84;100.00;101009.09;5005852;28;20250;-61
2023/07/26 03:44:46;;;;;;;4.00;3.70;;;;;;;12.77;100.00;101007.19;5004194;28;20030;-61
2023/07/26 03:47:11;;;;;;;4.82;4.13;;;;;;;12.72;100.00;101007.03;5003037;28;20568;-62
2023/07/26 03:49:37;;;;;;;4.15;3.67;;;;;;;12.67;100.00;101006.94;5003198;28;20014;-62
2023/07/26 03:52:04;;;;;;;4.40;4.00;;;;;;;12.59;100.00;101008.47;4993948;28;20113;-61
2023/07/26 03:54:30;;;;;;;6.32;3.97;;;;;;;12.51;100.00;101007.34;5000075;28;20050;-61
2023/07/26 03:56:55;;;;;;;8.40;4.18;;;;;;;12.47;100.00;101003.78;4987783;28;20420;-62
2023/07/26 03:59:20;;;;;;;4.40;4.00;;;;;;;12.43;100.00;101000.22;4988953;28;20479;-62
2023/07/26 04:01:46;;;;;;;3.95;3.60;;;;;;;12.39;100.00;101001.00;4999827;28;20029;-61
2023/07/26 04:04:11;;;;;;;5.22;3.97;;;;;;;12.36;100.00;101003.50;5007401;28;20389;-62
2023/07/26 04:06:36;;;;;;;3.95;3.60;;;;;;;12.34;100.00;101000.88;5006860;28;20367;-61
2023/07/26 04:09:02;;;;;;;3.55;3.25;;;;;;;12.33;100.00;101003.44;5007085;28;20382;-61
2023/07/26 04:11:27;;;;;;;3.90;3.50;;;;;;;12.26;100.00;101007.59;5008263;28;20022;-61
2023/07/26 04:13:52;;;;;;;4.00;3.63;;;;;;;12.22;100.00;101006.63;4994932;28;20045;-61
2023/07/26 04:16:19;;;;;;;3.95;3.10;;;;;;;12.18;100.00;101002.16;4996516;28;20028;-61
2023/07/26 04:18:45;;;;;;;4.38;3.40;;;;;;;12.12;100.00;100992.47;4992988;28;20113;-61
2023/07/26 04:21:15;;;;;;;4.95;3.67;;;;;;;12.08;100.00;101000.13;5007581;28;20456;-61
2023/07/26 04:23:42;;;;;;;4.30;3.83;;;;;;;12.04;100.00;101004.34;5007478;28;20029;-61
2023/07/26 04:26:07;;;;;;;3.72;3.22;;;;;;;12.04;100.00;101004.34;5007924;28;20025;-61
2023/07/26 04:28:32;;;;;;;4.05;3.60;;;;;;;12.03;100.00;101004.31;5006578;28;20030;-61
2023/07/26 04:30:58;;;;;;;3.70;3.40;;;;;;;11.97;100.00;101008.47;5007660;28;20029;-61
2023/07/26 04:33:23;;;;;;;3.70;3.40;;;;;;;12.00;100.00;101005.06;5006539;28;20026;-62
2023/07/26 04:35:48;;;;;;;4.25;3.53;;;;;;;11.97;100.00;101003.28;5007397;28;20032;-62
2023/07/26 04:38:14;;;;;;;4.32;3.78;;;;;;;11.94;100.00;101003.22;5007309;28;20053;-61
2023/07/26 04:40:39;;;;;;;6.75;4.22;;;;;;;11.92;100.00;101006.59;5007105;28;20041;-62
2023/07/26 04:43:05;;;;;;;5.32;4.47;;;;;;;11.91;100.00;101000.50;5006729;28;20113;-61
2023/07/26 04:45:30;;;;;;;5.13;4.25;;;;;;;11.93;100.00;101004.03;5007545;28;20046;-61
2023/07/26 04:47:56;;;;;;;5.18;4.32;;;;;;;11.97;100.00;101013.69;5007047;28;20394;-61
2023/07/26 04:50:21;;;;;;;5.90;4.45;;;;;;;11.98;100.00;101007.63;5007274;28;20113;-61
2023/07/26 04:52:46;;;;;;;5.50;4.38;;;;;;;12.01;100.00;101005.16;4989590;28;20046;-61
2023/07/26 04:55:12;;;;;;;6.60;4.90;;;;;;;12.03;100.00;101004.31;4987971;28;20032;-61
2023/07/26 04:57:38;;;;;;;5.93;4.72;;;;;;;12.07;100.00;101009.63;5001204;28;20035;-62
2023/07/26 05:00:05;;;;;;;6.65;4.82;;;;;;;12.14;100.00;101010.72;4990348;28;20022;-61
2023/07/26 05:02:31;;;;;;;7.95;5.03;;;;;;;12.18;100.00;101001.31;5006687;28;20068;-62
2023/07/26 05:04:56;;;;;;;5.70;5.07;;;;;;;12.23;100.00;100997.97;5007240;28;20057;-62
2023/07/26 05:07:21;;;;;;;5.82;5.20;;;;;;;12.29;100.00;100998.97;4990314;28;20046;-61
2023/07/26 05:09:47;;;;;;;5.88;5.20;;;;;;;12.31;100.00;100998.19;4988214;28;20088;-62
2023/07/26 05:12:12;;;;;;;5.97;5.03;;;;;;;12.35;100.00;100997.44;4991804;28;20077;-61
2023/07/26 05:14:41;;;;;;;9.52;5.80;;;;;;;12.42;100.00;101000.19;4999329;28;20033;-61
2023/07/26 05:17:06;;;;;;;6.85;5.47;;;;;;;12.52;100.00;101002.19;5008879;28;20389;-61
2023/07/26 05:19:31;;;;;;;7.35;5.43;;;;;;;12.59;100.00;101004.13;5011063;28;20022;-61
2023/07/26 05:21:57;;;;;;;6.22;5.55;;;;;;;12.67;100.00;101001.72;5010285;28;20028;-61
2023/07/26 05:24:22;;;;;;;9.60;6.30;;;;;;;12.75;100.00;101008.84;5011010;28;20108;-60
2023/07/26 05:26:47;;;;;;;7.95;5.43;;;;;;;12.81;100.00;101009.88;5006259;28;20490;-61
2023/07/26 05:29:13;;;;;;;7.97;6.00;;;;;;;12.91;100.00;101011.00;4991686;28;20116;-61
2023/07/26 05:31:38;;;;;;;8.80;5.57;;;;;;;12.95;100.00;101010.22;4991094;28;20076;-61
2023/07/26 05:34:03;;;;;;;8.45;5.72;;;;;;;13.03;100.00;101009.53;4991691;28;20105;-61
2023/07/26 05:36:29;;;;;;;8.90;6.38;;;;;;;13.06;100.00;101009.63;4996739;28;20029;-61
2023/07/26 05:38:54;;;;;;;7.18;5.88;;;;;;;13.15;100.00;101002.03;4999209;28;20038;-62
2023/07/26 05:41:19;;;;;;;8.73;6.13;;;;;;;13.24;100.00;101005.72;5008424;28;20120;-62
2023/07/26 05:43:45;;;;;;;7.20;5.80;;;;;;;13.29;100.00;101002.34;5006901;28;20071;-61
2023/07/26 05:46:10;;;;;;;7.70;5.93;;;;;;;13.41;100.00;101003.47;5006860;28;20121;-61
2023/07/26 05:48:35;;;;;;;6.72;5.47;;;;;;;13.53;100.00;101010.72;5006732;28;20057;-61
2023/07/26 05:51:01;;;;;;;10.27;4.97;;;;;;;13.68;100.00;101005.88;5008930;28;20064;-62
2023/07/26 05:53:27;;;;;;;6.60;5.85;;;;;;;13.84;100.00;101006.19;5009630;28;20091;-61
2023/07/26 05:55:52;;;;;;;7.32;5.88;;;;;;;13.94;100.00;101007.28;5009814;28;20044;-62
2023/07/26 05:58:17;;;;;;;6.60;5.72;;;;;;;14.07;100.00;101005.78;5010694;28;20518;-60
2023/07/26 06:00:43;;;;;;;6.47;5.65;;;;;;;14.14;100.00;101004.16;5006148;28;20010;-62
2023/07/26 06:03:08;;;;;;;8.35;6.07;;;;;;;14.08;100.00;101015.38;4999550;28;20445;-62
2023/07/26 06:05:34;;;;;;;7.07;6.38;;;;;;;14.07;100.00;101013.59;5007398;28;20064;-61
2023/07/26 06:07:59;;;;;;;9.32;6.28;;;;;;;14.07;100.00;101016.19;4999607;28;20496;-62
2023/07/26 06:10:25;;;;;;;9.32;5.97;;;;;;;14.05;100.00;101015.28;4994794;28;20057;-62
2023/07/26 06:12:50;;;;;;;12.02;6.50;;;;;;;14.01;100.00;101023.91;4990618;28;20069;-61
2023/07/26 06:15:16;;;;;;;8.10;6.78;;;;;;;14.05;100.00;101029.19;5005890;28;20168;-61
2023/07/26 06:17:41;;;;;;;7.85;5.70;;;;;;;14.15;100.00;101037.22;5009350;28;20125;-61
2023/07/26 06:20:07;;;;;;;9.75;6.53;;;;;;;14.22;100.00;101043.41;4998066;28;20032;-62
2023/07/26 06:22:32;;;;;;;9.70;6.25;;;;;;;14.25;100.00;101046.06;4991789;28;20033;-61
2023/07/26 06:24:58;;;;;;;7.65;6.40;;;;;;;14.21;100.00;101044.28;4993190;28;20427;-61
2023/07/26 06:27:28;;;;;;;9.57;6.75;;;;;;;14.20;100.00;101050.31;4990752;28;20033;-61
2023/07/26 06:29:54;;;;;;;9.65;6.68;;;;;;;14.24;100.00;101054.75;4993632;28;20022;-61
2023/07/26 06:32:19;;;;;;;7.82;6.97;;;;;;;14.29;100.00;101050.50;4993073;28;20014;-62
2023/07/26 06:34:44;;;;;;;7.72;6.75;;;;;;;14.31;100.00;101059.25;4994749;28;20097;-61
2023/07/26 06:37:10;;;;;;;8.70;7.05;;;;;;;14.36;100.00;101061.94;4991697;28;20034;-61
2023/07/26 06:39:35;;;;;;;8.02;6.95;;;;;;;14.38;100.00;101068.94;4993390;28;20021;-61
2023/07/26 06:42:00;;;;;;;11.20;7.10;;;;;;;14.39;100.00;101070.69;4998784;28;20022;-61
2023/07/26 06:44:26;;;;;;;9.88;7.90;;;;;;;14.39;100.00;101073.31;4990917;28;20018;-61
2023/07/26 06:46:51;;;;;;;9.60;7.43;;;;;;;14.35;100.00;101071.50;4989554;28;20034;-61
2023/07/26 06:49:17;;;;;;;8.23;7.45;;;;;;;14.34;100.00;101072.34;5003399;28;20022;-61
2023/07/26 06:51:42;;;;;;;9.77;8.43;;;;;;;14.35;100.00;101074.13;4997766;28;20040;-61
2023/07/26 06:54:07;;;;;;;9.98;8.85;;;;;;;14.38;100.00;101076.78;4988025;28;20223;-61
2023/07/26 06:56:33;;;;;;;10.20;9.13;;;;;;;14.37;100.00;101074.13;4997342;28;20022;-61
2023/07/26 06:58:58;;;;;;;11.98;9.32;;;;;;;14.34;100.00;101074.94;5007203;28;20490;-61
2023/07/26 07:01:23;;;;;;;12.48;10.13;;;;;;;14.32;100.00;101076.63;5006734;28;20034;-62
2023/07/26 07:03:49;;;;;;;11.48;9.60;;;;;;;14.33;100.00;101078.41;5007626;28;20025;-62
2023/07/26 07:06:14;;;;;;;11.48;10.35;;;;;;;14.36;100.00;101078.47;5009093;28;20044;-61
2023/07/26 07:08:40;;;;;;;12.50;10.50;;;;;;;14.36;100.00;101083.69;5009043;28;20068;-62
2023/07/26 07:11:05;;;;;;;10.88;9.88;;;;;;;14.33;100.00;101083.63;5007633;28;20311;-61
2023/07/26 07:13:36;;;;;;;11.95;10.70;;;;;;;14.31;100.00;101081.81;5008469;28;20061;-62
2023/07/26 07:16:05;;;;;;;12.25;10.25;;;;;;;14.29;100.00;101092.22;5008066;28;20542;-61
2023/07/26 07:18:31;;;;;;;14.85;10.73;;;;;;;14.30;100.00;101094.00;5008137;28;20040;-61
2023/07/26 07:20:58;;;;;;;12.57;11.15;;;;;;;14.29;100.00;101097.44;5004289;28;20026;-61
2023/07/26 07:23:25;;;;;;;12.23;10.55;;;;;;;14.32;100.00;101114.88;5007863;28;20096;-62
2023/07/26 07:25:50;;;;;;;13.45;10.65;;;;;;;14.32;100.00;101123.56;4997787;28;20045;-61
2023/07/26 07:28:15;;;;;;;12.45;11.18;;;;;;;14.34;100.00;101126.19;5004093;28;20510;-61
2023/07/26 07:30:41;;;;;;;12.75;11.48;;;;;;;14.32;100.00;101127.91;5001941;28;20402;-62
2023/07/26 07:33:07;;;;;;;12.80;11.45;;;;;;;14.30;100.00;101140.91;5000681;28;20037;-61
2023/07/26 07:35:32;;;;;;;13.18;11.35;;;;;;;14.29;100.00;101129.59;5003972;28;20025;-62
2023/07/26 07:37:57;;;;;;;16.23;12.23;;;;;;;14.29;100.00;101123.50;5004908;28;20162;-62
2023/07/26 07:40:23;;;;;;;12.82;11.52;;;;;;;14.30;100.00;101125.28;5006495;28;20093;-61
2023/07/26 07:42:48;;;;;;;15.30;11.63;;;;;;;14.33;100.00;101129.66;5006613;28;20029;-62
2023/07/26 07:45:14;;;;;;;13.10;11.70;;;;;;;14.35;100.00;101127.97;5008513;28;20504;-61
2023/07/26 07:47:39;;;;;;;13.75;12.30;;;;;;;14.36;100.00;101117.56;5005578;28;20052;-61
2023/07/26 07:50:05;;;;;;;14.25;11.60;;;;;;;14.36;100.00;101130.59;5007367;28;20029;-60
2023/07/26 07:52:32;;;;;;;16.42;12.13;;;;;;;14.36;100.00;101117.56;5007082;28;20057;-62
2023/07/26 07:54:57;;;;;;;14.63;11.95;;;;;;;14.48;100.00;101124.75;4991176;28;20056;-61
2023/07/26 07:57:22;;;;;;;13.43;11.80;;;;;;;14.55;100.00;101125.78;4996357;28;20017;-61
2023/07/26 07:59:49;;;;;;;13.95;12.52;;;;;;;14.83;100.00;101120.22;5008077;28;20120;-61
2023/07/26 08:02:14;;;;;;;15.70;11.10;;;;;;;15.11;100.00;101112.94;5008054;28;20030;-61
2023/07/26 08:04:39;;;;;;;12.65;10.98;;;;;;;15.29;100.00;101109.72;4997491;28;20058;-62
2023/07/26 08:07:05;;;;;;;11.75;10.55;;;;;;;15.54;100.00;101115.34;5005630;28;20036;-62
2023/07/26 08:09:30;;;;;;;10.77;9.65;;;;;;;15.92;100.00;101115.94;5003964;28;20026;-62
2023/07/26 08:11:56;;;;;;;10.80;9.55;;;;;;;16.35;100.00;101101.69;5007362;28;20109;-61
2023/07/26 08:14:22;;;;;;;12.52;9.15;;;;;;;16.74;100.00;101110.84;5006900;28;20049;-62
2023/07/26 08:16:47;;;;;;;9.93;7.90;;;;;;;17.10;100.00;101111.22;5007323;28;20030;-62
2023/07/26 08:19:13;;;;;;;11.60;8.27;;;;;;;17.33;100.00;101112.28;5002076;28;20105;-62
2023/07/26 08:21:38;;;;;;;7.22;6.53;;;;;;;17.57;100.00;101111.59;4997621;28;20076;-62
2023/07/26 08:24:04;;;;;;;9.27;6.88;;;;;;;17.79;100.00;101121.34;5005527;28;20457;-62
2023/07/26 08:26:29;;;;;;;9.13;7.03;;;;;;;17.93;100.00;101119.69;5002384;28;20437;-63
2023/07/26 08:28:54;;;;;;;10.48;7.10;;;;;;;18.15;100.00;101116.34;4992591;28;20062;-62
2023/07/26 08:31:20;;;;;;;10.45;7.00;;;;;;;18.43;100.00;101114.72;5003605;28;20118;-63
2023/07/26 08:33:45;;;;;;;7.43;6.70;;;;;;;18.64;100.00;101118.25;5005907;28;20097;-62
2023/07/26 08:36:10;;;;;;;9.13;7.65;;;;;;;18.77;100.00;101119.19;4994983;28;20471;-62
2023/07/26 08:38:36;;;;;;;8.40;6.07;;;;;;;19.03;100.00;101110.44;5000345;28;20105;-62
2023/07/26 08:41:01;;;;;;;6.97;5.68;;;;;;;19.27;100.00;101113.13;4992921;28;20057;-62
2023/07/26 08:43:35;;;;;;;5.75;5.25;;;;;;;19.51;100.00;101121.88;5001062;28;20022;-62
2023/07/26 08:46:02;;;;;;;7.90;6.88;;;;;;;19.67;100.00;101110.47;4992856;28;20037;-62
2023/07/26 08:48:28;;;;;;;6.45;5.43;;;;;;;19.81;100.00;101109.56;4997109;28;20029;-61
2023/07/26 08:50:53;;;;;;;7.57;5.22;;;;;;;19.99;100.00;101111.28;5007206;28;20034;-63
2023/07/26 08:53:20;;;;;;;9.07;7.20;;;;;;;20.02;97.87;101111.25;4999487;28;20355;-62
2023/07/26 08:55:48;;;;;;;9.13;5.82;;;;;;;20.15;95.67;101112.13;5008940;28;20046;-62
2023/07/26 08:58:13;;;;;;;6.10;5.07;;;;;;;20.32;94.80;101102.41;4999733;28;20065;-62
2023/07/26 09:00:39;;;;;;;7.13;5.45;;;;;;;20.49;94.17;101102.34;5002924;28;20144;-62
2023/07/26 09:03:06;;;;;;;6.32;5.32;;;;;;;20.61;97.38;101104.91;5009473;28;20029;-62
2023/07/26 09:05:32;;;;;;;5.45;4.90;;;;;;;20.69;86.66;101102.22;5005872;28;20037;-62
2023/07/26 09:07:58;;;;;;;5.07;4.57;;;;;;;20.76;88.85;101095.13;5007152;28;20026;-62
2023/07/26 09:10:30;;;;;;;7.53;5.28;;;;;;;20.77;87.81;101086.38;5009600;28;20111;-62
2023/07/26 09:13:12;;;;;;;7.18;5.43;;;;;;;20.60;87.03;101095.25;4998796;28;20426;-62
2023/07/26 09:15:39;;;;;;;6.15;5.57;;;;;;;20.54;87.84;101092.66;5011144;28;20037;-62
2023/07/26 09:18:05;;;;;;;6.20;4.65;;;;;;;20.47;83.96;101093.56;5009877;28;20065;-63
2023/07/26 09:20:31;;;;;;;5.80;5.20;;;;;;;20.46;81.94;101097.06;5010349;28;20426;-63
2023/07/26 09:22:59;;;;;;;6.47;4.53;;;;;;;20.24;82.93;101091.91;4999541;28;20158;-63
2023/07/26 09:25:44;;;;;;;5.25;4.25;;;;;;;19.80;85.41;101086.78;5001903;28;20053;-63
2023/07/26 09:28:12;;;;;;;5.65;4.20;;;;;;;19.65;84.77;101088.56;5006881;28;20022;-61
2023/07/26 09:30:39;;;;;;;5.57;4.95;;;;;;;19.48;87.40;101085.97;5010086;28;20030;-63
2023/07/26 09:33:11;;;;;;;5.38;4.35;;;;;;;19.23;87.07;101085.97;5007586;28;20014;-62
2023/07/26 09:35:47;;;;;;;4.70;4.28;;;;;;;19.12;90.44;101088.63;5010543;28;20030;-61
2023/07/26 09:38:15;;;;;;;5.82;4.18;;;;;;;19.25;93.81;101088.63;5007941;28;20029;-61
2023/07/26 09:40:40;;;;;;;7.45;4.75;;;;;;;19.66;96.03;101090.31;5010658;28;20069;-61
2023/07/26 09:43:06;;;;;;;6.18;3.90;;;;;;;20.01;86.81;101083.22;5008398;28;20061;-62
2023/07/26 09:45:31;;;;;;;4.60;3.00;;;;;;;19.91;77.59;101092.88;5008335;28;20112;-62
2023/07/26 09:48:11;;;;;;;5.07;3.65;;;;;;;19.96;77.67;101084.09;5010193;28;20021;-62
2023/07/26 09:50:37;;;;;;;5.85;4.30;;;;;;;19.85;77.78;101095.53;4999489;28;20030;-62
2023/07/26 09:53:06;;;;;;;5.28;3.83;;;;;;;19.70;78.57;101100.84;4998497;28;20245;-61
2023/07/26 09:55:32;;;;;;;5.13;3.60;;;;;;;19.61;81.09;101097.34;4998019;28;20130;-60
2023/07/26 09:57:59;;;;;;;3.20;2.90;;;;;;;19.46;78.50;101092.09;4991267;28;20022;-60
2023/07/26 10:00:29;;;;;;;2.60;2.05;;;;;;;19.27;68.34;101100.00;4990623;28;20470;-61
2023/07/26 10:03:01;;;;;;;2.55;1.40;;;;;;;19.43;68.73;101099.13;4987556;28;20224;-60
2023/07/26 10:05:28;;;;;;;2.17;1.60;;;;;;;19.72;69.85;101093.81;4988693;28;20390;-60
2023/07/26 10:07:55;;;;;;;1.67;1.38;;;;;;;20.03;67.20;101093.72;4986781;28;20033;-61
2023/07/26 10:10:22;;;;;;;2.55;1.52;;;;;;;20.35;66.01;101090.13;4986923;28;20397;-59
2023/07/26 10:12:50;;;;;;;2.85;1.70;;;;;;;20.46;62.58;101089.19;4988498;28;20045;-60
2023/07/26 10:15:16;;;;;;;2.03;1.50;;;;;;;20.82;67.22;101087.22;4988699;28;20037;-60
2023/07/26 10:17:47;;;;;;;2.38;2.15;;;;;;;21.04;65.83;101095.00;4995235;28;20109;-60
2023/07/26 10:20:13;;;;;;;3.42;2.15;;;;;;;21.18;64.33;101096.63;4988096;28;20098;-60
2023/07/26 10:22:41;;;;;;;3.33;2.80;;;;;;;20.86;63.66;101095.97;4988607;28;20113;-60
2023/07/26 10:25:08;;;;;;;3.28;2.15;;;;;;;20.70;67.77;101105.72;4989092;28;20052;-59
2023/07/26 10:27:34;;;;;;;3.85;2.33;;;;;;;20.72;69.61;101094.28;4989844;28;20475;-60
2023/07/26 10:30:00;;;;;;;3.53;2.92;;;;;;;20.99;72.82;101096.78;4989488;28;20092;-60
2023/07/26 10:32:25;;;;;;;2.85;2.55;;;;;;;21.15;69.20;101087.00;4989652;28;20026;-60
2023/07/26 10:34:55;;;;;;;5.38;3.22;;;;;;;21.23;67.64;101090.44;4989486;28;20298;-60
2023/07/26 10:37:20;;;;;;;3.33;2.90;;;;;;;21.04;68.08;101094.09;4988699;28;20041;-60
2023/07/26 10:39:48;;;;;;;3.65;3.33;;;;;;;21.14;70.65;101079.13;4994012;28;20022;-60
2023/07/26 10:42:25;;;;;;;8.25;3.55;;;;;;;21.02;70.16;101082.69;5007527;28;20060;-60
2023/07/26 10:45:32;;;;;;;5.50;3.53;;;;;;;21.02;72.76;101073.06;4989817;28;20526;-60
2023/07/26 10:47:57;;;;;;;5.45;3.33;;;;;;;21.15;72.13;101076.47;4995124;28;20014;-60
2023/07/26 10:50:25;;;;;;;3.90;3.10;;;;;;;21.38;72.31;101082.41;4993526;28;1101187;-60
2023/07/26 10:52:50;;;;;;;5.80;3.40;;;;;;;21.54;68.26;101083.13;4991590;28;20712;-60
2023/07/26 10:55:27;;;;;;;4.68;3.45;;;;;;;21.54;66.75;101089.28;4990381;28;20109;-60
2023/07/26 10:57:52;;;;;;;4.53;3.35;;;;;;;21.57;66.06;101091.88;4990339;28;20237;-59
2023/07/26 11:00:31;;;;;;;5.97;3.40;;;;;;;21.63;66.89;101087.41;4990108;28;20074;-59
2023/07/26 11:03:01;;;;;;;6.75;3.60;;;;;;;21.64;67.64;101086.56;4996710;28;20026;-60
2023/07/26 11:05:29;;;;;;;3.80;3.43;;;;;;;21.74;70.10;101089.94;5008718;28;20029;-60
2023/07/26 11:08:01;;;;;;;6.15;3.85;;;;;;;21.67;71.11;101086.50;5009286;28;20376;-60
2023/07/26 11:10:37;;;;;;;5.65;4.00;;;;;;;21.63;73.91;101084.78;5008558;28;20026;-60
2023/07/26 11:13:16;;;;;;;5.30;3.47;;;;;;;21.62;73.93;101083.06;5008921;28;20026;-60